»·PEaware :: N198JT KGEG-KHQM

N198JT :: KGEG-KHQM

FLIGHT INFORMATION

Flight Status: Arrived
Operator: Privately registered:
United States
More flights under this callsign
Pilot: Jeremy T. (18871)
Aircraft: PIPER PA-24 COMMANCHE
(PA24)
More flights by this aircraft type
Origin: KGEG Spokane Intl
United States
Destination: KHQM Bowerman
United States
More flights between these airports :: More routes between these airports
Route:
File this flight plan on PilotEdge
Remarks:
Altitude:
(Current/Filed)
8,500ft
Speed:
(Current/Filed)
150kts
Departed: 10-May-20 05:12 PM
Arrived: 10-May-20 06:53 PM
Distance/Time
Traveled:
263nm/1:41
Distance/Time
To Go:
Arrived

Flight Plot

Page will automatically refresh every two minutes.

Flight plan parsing failed; only flown route is shown


Map Options




Map Legend


Flown Route
Filed Route
Departure Airport
Arrival Airport
Navaid (VOR, NDB)
Fix

Horizontal Profiles

Position Reports

Time Latitude Longitude Heading Altitude Ground
Speed
10-May-20 16:58 47.621129 -117.527861 178 2353ft 0kts
10-May-20 16:59 47.621125 -117.527861 178 2353ft 0kts
10-May-20 16:59 47.621122 -117.527861 178 2353ft 0kts
10-May-20 17:01 47.621117 -117.527860 178 2353ft 0kts
10-May-20 17:02 47.621113 -117.527860 178 2353ft 0kts
10-May-20 17:02 47.621110 -117.527860 178 2353ft 0kts
10-May-20 17:03 47.621106 -117.527860 178 2353ft 0kts
10-May-20 17:04 47.621057 -117.527859 179 2353ft 4kts
10-May-20 17:05 47.620121 -117.531524 225 2353ft 18kts
10-May-20 17:06 47.615296 -117.538758 224 2353ft 29kts
10-May-20 17:07 47.613654 -117.543013 317 2353ft 0kts
10-May-20 17:08 47.613658 -117.543019 317 2353ft 0kts
10-May-20 17:09 47.613660 -117.543022 317 2353ft 0kts
10-May-20 17:10 47.613754 -117.543153 316 2353ft 9kts
10-May-20 17:11 47.621201 -117.533393 47 2537ft 92kts
10-May-20 17:12 47.640563 -117.521678 293 3577ft 122kts
10-May-20 17:13 47.630850 -117.572132 251 4583ft 130kts
10-May-20 17:14 47.619118 -117.624652 253 5498ft 135kts
10-May-20 17:15 47.607691 -117.679572 250 6438ft 140kts
10-May-20 17:16 47.595052 -117.735189 251 7399ft 143kts
10-May-20 17:17 47.582357 -117.791818 251 8275ft 145kts
10-May-20 17:18 47.568725 -117.852103 251 8519ft 165kts
10-May-20 17:19 47.553562 -117.919232 251 8490ft 179kts
10-May-20 17:20 47.537870 -117.988563 251 8478ft 176kts
10-May-20 17:21 47.522489 -118.056775 251 8471ft 173kts
10-May-20 17:22 47.507326 -118.123916 251 8467ft 171kts
10-May-20 17:23 47.492186 -118.190766 251 8462ft 171kts
10-May-20 17:24 47.477127 -118.257666 251 8458ft 171kts
10-May-20 17:25 47.462111 -118.324299 251 8447ft 170kts
10-May-20 17:26 47.447266 -118.390715 251 8441ft 170kts
10-May-20 17:27 47.432495 -118.456846 251 8434ft 169kts
10-May-20 17:28 47.417529 -118.523784 251 8438ft 175kts
10-May-20 17:29 47.402334 -118.591926 251 8433ft 176kts
10-May-20 17:30 47.387299 -118.659564 251 8424ft 171kts
10-May-20 17:31 47.372513 -118.726293 251 8416ft 171kts
10-May-20 17:32 47.357692 -118.793090 251 8416ft 173kts
10-May-20 17:33 47.342922 -118.859828 251 8409ft 168kts
10-May-20 17:34 47.328507 -118.925044 251 8406ft 167kts
10-May-20 17:35 47.314070 -118.990324 251 8410ft 169kts
10-May-20 17:36 47.299253 -119.057333 251 8415ft 175kts
10-May-20 17:37 47.284232 -119.125074 251 8418ft 175kts
10-May-20 17:38 47.269156 -119.193325 251 8416ft 175kts
10-May-20 17:39 47.254293 -119.260398 251 8410ft 170kts
10-May-20 17:40 47.239480 -119.327131 251 8414ft 174kts
10-May-20 17:41 47.224620 -119.394362 251 8414ft 171kts
10-May-20 17:42 47.209780 -119.461194 251 8419ft 174kts
10-May-20 17:43 47.195098 -119.527268 251 8526ft 163kts
10-May-20 17:44 47.180662 -119.592466 251 8513ft 171kts
10-May-20 17:45 47.165950 -119.658638 251 8509ft 169kts
10-May-20 17:46 47.151348 -119.724426 251 8508ft 170kts
10-May-20 17:47 47.136594 -119.790799 251 8507ft 171kts
10-May-20 17:48 47.125281 -119.858477 256 8504ft 170kts
10-May-20 17:49 47.114413 -119.925899 256 8503ft 169kts
10-May-20 17:50 47.103490 -119.993698 256 8507ft 173kts
10-May-20 17:51 47.092992 -120.061798 257 8503ft 168kts
10-May-20 17:52 47.082786 -120.128778 255 8502ft 167kts
10-May-20 17:53 47.071167 -120.195332 255 8505ft 170kts
10-May-20 17:54 47.059385 -120.262819 255 8514ft 173kts
10-May-20 17:55 47.047671 -120.330324 255 8509ft 169kts
10-May-20 17:56 47.036205 -120.397044 255 8510ft 168kts
10-May-20 17:57 47.025968 -120.464199 270 8505ft 169kts
10-May-20 17:58 47.029061 -120.532955 274 8509ft 169kts
10-May-20 17:59 47.032145 -120.601697 273 8511ft 169kts
10-May-20 18:00 47.035496 -120.670206 274 8511ft 169kts
10-May-20 18:01 47.038812 -120.739326 273 8514ft 171kts
10-May-20 18:02 47.042236 -120.809039 274 8520ft 172kts
10-May-20 18:03 47.045775 -120.878850 274 8523ft 170kts
10-May-20 18:04 47.049302 -120.948809 274 8535ft 175kts
10-May-20 18:05 47.053040 -121.019905 274 8544ft 175kts
10-May-20 18:06 47.056868 -121.090653 274 8550ft 175kts
10-May-20 18:07 47.060736 -121.161088 274 8552ft 171kts
10-May-20 18:08 47.064552 -121.230658 274 8555ft 171kts
10-May-20 18:09 47.068439 -121.300159 274 8560ft 171kts
10-May-20 18:10 47.072377 -121.370433 274 8553ft 176kts
10-May-20 18:11 47.076400 -121.441356 274 8540ft 172kts
10-May-20 18:12 47.080514 -121.512057 274 8533ft 175kts
10-May-20 18:13 47.064970 -121.578022 240 8526ft 175kts
10-May-20 18:14 47.043106 -121.641446 240 8509ft 175kts
10-May-20 18:15 47.021336 -121.704554 239 8483ft 172kts
10-May-20 18:16 47.000370 -121.767878 243 8463ft 175kts
10-May-20 18:17 46.981096 -121.832185 243 8441ft 171kts
10-May-20 18:18 46.961788 -121.896219 244 8429ft 173kts
10-May-20 18:19 46.944106 -121.961235 245 8413ft 170kts
10-May-20 18:20 46.927829 -122.026899 247 8405ft 173kts
10-May-20 18:21 46.912668 -122.093509 248 8394ft 171kts
10-May-20 18:22 46.897449 -122.159962 247 8390ft 174kts
10-May-20 18:23 46.882022 -122.227197 248 8385ft 176kts
10-May-20 18:24 46.866031 -122.294372 246 8372ft 176kts
10-May-20 18:25 46.849235 -122.360275 246 8365ft 170kts
10-May-20 18:26 46.833605 -122.425772 259 8355ft 173kts
10-May-20 18:27 46.826863 -122.494826 259 8353ft 171kts
10-May-20 18:28 46.819774 -122.563843 257 8355ft 172kts
10-May-20 18:29 46.812839 -122.632873 259 8355ft 171kts
10-May-20 18:30 46.805718 -122.701939 258 8358ft 174kts
10-May-20 18:31 46.799273 -122.771079 260 8356ft 170kts
10-May-20 18:32 46.792985 -122.840311 261 8359ft 174kts
10-May-20 18:33 46.787921 -122.910683 262 8359ft 175kts
10-May-20 18:34 46.783774 -122.981076 263 8359ft 176kts
10-May-20 18:35 46.780224 -123.051459 264 8359ft 173kts
10-May-20 18:36 46.776717 -123.121423 264 8359ft 175kts
10-May-20 18:37 46.788187 -123.189291 289 8366ft 175kts
10-May-20 18:38 46.804722 -123.254659 290 8362ft 170kts
10-May-20 18:39 46.821134 -123.319415 290 8357ft 169kts
10-May-20 18:40 46.837360 -123.383537 289 8355ft 168kts
10-May-20 18:41 46.853373 -123.447125 290 8028ft 167kts
10-May-20 18:42 46.869582 -123.511321 289 7292ft 169kts
10-May-20 18:43 46.885602 -123.575672 290 6185ft 165kts
10-May-20 18:44 46.901167 -123.638033 290 5415ft 161kts
10-May-20 18:45 46.916267 -123.698754 289 4710ft 157kts
10-May-20 18:46 46.931067 -123.757990 290 4072ft 153kts
10-May-20 18:47 46.955927 -123.801503 350 3178ft 144kts
10-May-20 18:48 46.980313 -123.827621 279 2090ft 104kts
10-May-20 18:50 46.979534 -123.866098 259 1072ft 86kts
10-May-20 18:51 46.975955 -123.897130 259 466ft 69kts
10-May-20 18:52 46.972905 -123.922015 259 83ft 56kts
10-May-20 18:53 46.972055 -123.933459 347 17ft 10kts
10-May-20 18:54 46.972775 -123.932229 80 17ft 15kts
10-May-20 18:55 46.973396 -123.930774 169 17ft 0kts
10-May-20 18:56 46.973394 -123.930773 169 17ft 0kts
10-May-20 18:57 46.973394 -123.930773 169 17ft 0kts
10-May-20 18:58 46.973394 -123.930773 169 17ft 0kts
10-May-20 18:59 46.973394 -123.930773 169 17ft 0kts

Navigation Log

Ident Type
Flight plan parsing failed, navigation log unavailable